createdAt,value
2019-01-28T00:00:18.282Z,6.77
2019-01-28T00:02:46.882Z,6.50
2019-01-28T00:05:15.515Z,6.57
2019-01-28T00:07:44.297Z,7.47
2019-01-28T00:10:13.014Z,7.07
2019-01-28T00:12:41.638Z,6.77
2019-01-28T00:15:10.432Z,6.93
2019-01-28T00:17:39.314Z,7.10
2019-01-28T00:20:08.253Z,7.43
2019-01-28T00:22:36.957Z,7.00
2019-01-28T00:25:07.381Z,7.60
2019-01-28T00:27:36.017Z,8.00
2019-01-28T00:30:10.185Z,7.57
2019-01-28T00:32:38.798Z,7.70
2019-01-28T00:35:09.365Z,7.77
2019-01-28T00:37:38.041Z,7.33
2019-01-28T00:40:09.928Z,8.10
2019-01-28T00:42:38.512Z,8.03
2019-01-28T00:45:12.741Z,7.70
2019-01-28T00:47:41.360Z,7.90
2019-01-28T00:50:11.849Z,7.63
2019-01-28T00:52:40.533Z,7.90
2019-01-28T00:55:11.641Z,7.17
2019-01-28T00:57:40.298Z,7.20
2019-01-28T01:00:20.825Z,6.83
2019-01-28T01:02:49.658Z,7.90
2019-01-28T01:05:18.353Z,7.63
2019-01-28T01:07:47.160Z,7.93
2019-01-28T01:10:15.908Z,7.43
2019-01-28T01:12:44.446Z,7.97
2019-01-28T01:15:15.316Z,7.40
2019-01-28T01:17:43.899Z,8.33
2019-01-28T01:20:15.376Z,7.60
2019-01-28T01:22:44.168Z,7.70
2019-01-28T01:25:13.762Z,7.43
2019-01-28T01:27:43.234Z,8.10
2019-01-28T01:30:17.322Z,7.83
2019-01-28T01:32:45.817Z,7.47
2019-01-28T01:35:14.526Z,7.03
2019-01-28T01:37:43.067Z,6.27
2019-01-28T01:40:14.335Z,7.03
2019-01-28T01:42:42.955Z,7.33
2019-01-28T01:45:16.821Z,7.17
2019-01-28T01:47:45.625Z,7.23
2019-01-28T01:50:14.303Z,7.30
2019-01-28T01:52:42.838Z,6.03
2019-01-28T01:55:13.142Z,6.47
2019-01-28T01:57:41.745Z,6.63
2019-01-28T02:00:13.050Z,6.27
2019-01-28T02:02:41.590Z,7.43
2019-01-28T02:05:10.389Z,6.60
2019-01-28T02:07:38.930Z,6.83
2019-01-28T02:10:10.491Z,6.20
2019-01-28T02:12:39.029Z,6.47
2019-01-28T02:15:15.918Z,6.37
2019-01-28T02:17:44.530Z,6.23
2019-01-28T02:20:14.218Z,6.23
2019-01-28T02:22:42.749Z,6.10
2019-01-28T02:25:13.210Z,5.83
2019-01-28T02:27:41.881Z,5.60
2019-01-28T02:30:13.386Z,6.20
2019-01-28T02:32:41.924Z,5.80
2019-01-28T02:35:10.722Z,5.53
2019-01-28T02:37:39.253Z,5.47
2019-01-28T02:40:13.790Z,5.50
2019-01-28T02:42:42.402Z,5.30
2019-01-28T02:45:12.778Z,5.67
2019-01-28T02:47:41.341Z,5.10
2019-01-28T02:50:17.371Z,5.33
2019-01-28T02:52:46.181Z,4.83
2019-01-28T02:55:16.330Z,4.73
2019-01-28T02:57:45.046Z,4.73
2019-01-28T03:00:16.518Z,4.90
2019-01-28T03:02:45.486Z,5.13
2019-01-28T03:05:14.905Z,5.13
2019-01-28T03:07:43.481Z,5.07
2019-01-28T03:10:15.157Z,4.80
2019-01-28T03:12:43.727Z,4.43
2019-01-28T03:15:12.402Z,5.13
2019-01-28T03:17:40.970Z,4.90
2019-01-28T03:20:13.033Z,4.70
2019-01-28T03:22:41.591Z,4.90
2019-01-28T03:25:12.559Z,5.37
2019-01-28T03:27:41.129Z,5.10
2019-01-28T03:30:12.775Z,5.47
2019-01-28T03:32:41.339Z,5.63
2019-01-28T03:35:10.411Z,5.93
2019-01-28T03:37:38.975Z,5.27
2019-01-28T03:40:13.313Z,4.93
2019-01-28T03:42:42.154Z,5.30
2019-01-28T03:45:13.230Z,5.53
2019-01-28T03:47:41.862Z,4.60
2019-01-28T03:50:13.427Z,5.30
2019-01-28T03:52:42.224Z,4.33
2019-01-28T03:55:12.335Z,4.47
2019-01-28T03:57:40.966Z,4.87
2019-01-28T04:00:12.814Z,4.50
2019-01-28T04:02:41.510Z,4.90
2019-01-28T04:05:11.091Z,4.40
2019-01-28T04:07:39.751Z,5.10
2019-01-28T04:10:11.804Z,4.63
2019-01-28T04:12:40.357Z,4.73
2019-01-28T04:15:12.026Z,5.20
2019-01-28T04:17:40.587Z,4.70
2019-01-28T04:20:11.867Z,4.30
2019-01-28T04:22:40.426Z,4.50
2019-01-28T04:25:10.397Z,4.23
2019-01-28T04:27:38.956Z,4.30
2019-01-28T04:30:13.557Z,4.50
2019-01-28T04:32:42.122Z,4.20
2019-01-28T04:35:10.727Z,4.40
2019-01-28T04:37:39.338Z,4.47
2019-01-28T04:40:10.374Z,4.67
2019-01-28T04:42:38.944Z,4.03
2019-01-28T04:45:10.406Z,3.60
2019-01-28T04:47:38.944Z,4.10
2019-01-28T04:50:10.421Z,3.57
2019-01-28T04:52:38.947Z,4.00
2019-01-28T04:55:09.041Z,3.90
2019-01-28T04:57:37.511Z,3.80
2019-01-28T05:00:09.263Z,3.67
2019-01-28T05:02:37.797Z,3.53
2019-01-28T05:05:07.097Z,3.87
2019-01-28T05:07:35.633Z,3.87
2019-01-28T05:10:07.323Z,3.67
2019-01-28T05:12:35.862Z,3.17
2019-01-28T05:15:06.362Z,3.00
2019-01-28T05:17:34.944Z,3.30
2019-01-28T05:20:04.826Z,3.47
2019-01-28T05:22:33.366Z,3.53
2019-01-28T05:25:01.935Z,3.10
2019-01-28T05:27:30.471Z,3.20
2019-01-28T05:29:59.035Z,3.03
2019-01-28T05:32:27.570Z,2.87
2019-01-28T05:34:56.136Z,3.20
2019-01-28T05:37:24.667Z,2.60
2019-01-28T05:39:53.505Z,3.23
2019-01-28T05:42:22.033Z,3.03
2019-01-28T05:44:50.590Z,2.73
2019-01-28T05:47:19.134Z,2.97
2019-01-28T05:49:47.689Z,2.67
2019-01-28T05:52:16.159Z,2.73
2019-01-28T05:54:44.713Z,2.80
2019-01-28T05:57:13.252Z,2.60
2019-01-28T05:59:41.815Z,2.53
2019-01-28T06:02:10.354Z,2.60
2019-01-28T06:04:38.930Z,2.90
2019-01-28T06:07:07.455Z,2.43
2019-01-28T06:09:36.019Z,2.40
2019-01-28T06:12:04.726Z,2.50
2019-01-28T06:14:34.686Z,2.30
2019-01-28T06:17:03.247Z,2.40
2019-01-28T06:19:31.786Z,2.40
2019-01-28T06:22:00.556Z,2.07
2019-01-28T06:24:29.148Z,1.93
2019-01-28T06:26:57.665Z,2.10
2019-01-28T06:29:26.228Z,2.20
2019-01-28T06:31:54.767Z,2.30
2019-01-28T06:34:23.330Z,2.20
2019-01-28T06:36:51.874Z,2.30
2019-01-28T06:39:20.447Z,2.13
2019-01-28T06:41:48.988Z,2.00
2019-01-28T06:44:17.505Z,2.10
2019-01-28T06:46:45.991Z,2.00
2019-01-28T06:49:14.533Z,2.10
2019-01-28T06:51:43.151Z,2.40
2019-01-28T06:54:11.694Z,2.07
2019-01-28T06:56:40.253Z,2.03
2019-01-28T06:59:08.799Z,2.20
2019-01-28T07:01:37.385Z,2.40
2019-01-28T07:04:05.930Z,2.20
2019-01-28T07:06:34.498Z,2.37
2019-01-28T07:09:04.210Z,2.40
2019-01-28T07:11:32.776Z,2.47
2019-01-28T07:14:01.338Z,2.60
2019-01-28T07:16:29.897Z,2.70
2019-01-28T07:18:58.361Z,3.13
2019-01-28T07:21:26.930Z,2.80
2019-01-28T07:23:55.466Z,2.90
2019-01-28T07:26:24.035Z,2.90
2019-01-28T07:28:52.574Z,2.83
2019-01-28T07:31:21.134Z,2.67
2019-01-28T07:33:49.683Z,3.00
2019-01-28T07:36:18.246Z,2.80
2019-01-28T07:38:46.787Z,2.70
2019-01-28T07:41:15.374Z,2.40
2019-01-28T07:43:43.913Z,2.30
2019-01-28T07:46:12.482Z,2.63
2019-01-28T07:48:41.017Z,2.47
2019-01-28T07:51:09.646Z,2.73
2019-01-28T07:53:38.187Z,3.07
2019-01-28T07:56:06.745Z,3.00
2019-01-28T07:58:35.290Z,3.00
2019-01-28T08:01:04.083Z,2.97
2019-01-28T08:03:32.688Z,2.80
2019-01-28T08:06:01.255Z,3.00
2019-01-28T08:08:29.792Z,3.10
2019-01-28T08:10:58.376Z,2.90
2019-01-28T08:13:26.911Z,3.40
2019-01-28T08:15:55.454Z,3.20
2019-01-28T08:18:24.013Z,2.80
2019-01-28T08:20:52.562Z,3.17
2019-01-28T08:23:21.126Z,2.80
2019-01-28T08:25:49.661Z,2.80
2019-01-28T08:28:18.289Z,2.93
2019-01-28T08:30:46.900Z,2.83
2019-01-28T08:33:15.533Z,2.77
2019-01-28T08:35:44.210Z,3.13
2019-01-28T08:38:12.774Z,3.00
2019-01-28T08:40:41.317Z,2.70
2019-01-28T08:43:09.925Z,2.97
2019-01-28T08:45:38.843Z,3.20
2019-01-28T08:48:07.470Z,3.17
2019-01-28T08:50:36.013Z,3.67
2019-01-28T08:53:04.826Z,3.00
2019-01-28T08:55:33.426Z,3.07
2019-01-28T08:58:01.987Z,3.23
2019-01-28T09:00:33.561Z,3.00
2019-01-28T09:03:02.189Z,3.10
2019-01-28T09:05:30.796Z,2.97
2019-01-28T09:07:59.526Z,2.90
2019-01-28T09:10:29.696Z,3.40
2019-01-28T09:12:58.261Z,3.57
2019-01-28T09:15:27.133Z,3.50
2019-01-28T09:17:55.890Z,3.37
2019-01-28T09:20:29.413Z,3.57
2019-01-28T09:22:57.979Z,3.87
2019-01-28T09:25:26.656Z,3.80
2019-01-28T09:27:55.218Z,3.93
2019-01-28T09:30:34.357Z,3.53
2019-01-28T09:33:02.990Z,3.67
2019-01-28T09:35:31.532Z,4.13
2019-01-28T09:38:00.231Z,3.33
2019-01-28T09:40:31.705Z,2.80
2019-01-28T09:43:00.340Z,3.17
2019-01-28T09:45:39.746Z,2.73
2019-01-28T09:48:09.741Z,2.97
2019-01-28T09:50:38.346Z,2.60
2019-01-28T09:53:07.250Z,2.87
2019-01-28T09:55:35.852Z,2.70
2019-01-28T09:58:05.156Z,2.87
2019-01-28T10:00:39.006Z,2.60
2019-01-28T10:03:07.897Z,2.77
2019-01-28T10:05:36.434Z,2.47
2019-01-28T10:08:05.926Z,2.40
2019-01-28T10:10:34.636Z,2.50
2019-01-28T10:13:03.261Z,2.60
2019-01-28T10:15:31.801Z,2.77
2019-01-28T10:18:00.403Z,2.43
2019-01-28T10:20:44.595Z,2.47
2019-01-28T10:23:11.093Z,2.33
2019-01-28T10:25:39.975Z,2.60
2019-01-28T10:28:08.615Z,2.40
2019-01-28T10:30:39.849Z,3.10
2019-01-28T10:33:08.850Z,2.40
2019-01-28T10:35:38.133Z,2.60
2019-01-28T10:38:07.805Z,2.50
2019-01-28T10:40:39.393Z,2.30
2019-01-28T10:43:09.055Z,2.80
2019-01-28T10:45:37.745Z,2.93
2019-01-28T10:48:07.259Z,2.87
2019-01-28T10:50:36.550Z,2.37
2019-01-28T10:53:05.325Z,2.77
2019-01-28T10:55:33.958Z,3.00
2019-01-28T10:58:02.485Z,2.60
2019-01-28T11:00:34.109Z,3.53
2019-01-28T11:03:02.649Z,4.03
2019-01-28T11:05:31.207Z,4.20
2019-01-28T11:07:59.750Z,4.03
2019-01-28T11:10:29.122Z,3.50
2019-01-28T11:12:58.088Z,3.17
2019-01-28T11:15:28.741Z,2.97
2019-01-28T11:17:59.019Z,3.20
2019-01-28T11:20:27.984Z,3.30
2019-01-28T11:22:56.672Z,3.80
2019-01-28T11:25:31.040Z,3.40
2019-01-28T11:27:59.723Z,3.97
2019-01-28T11:30:35.821Z,3.90
2019-01-28T11:33:04.414Z,4.97
2019-01-28T11:35:33.240Z,5.23
2019-01-28T11:38:01.894Z,5.20
2019-01-28T11:40:30.523Z,5.17
2019-01-28T11:42:59.093Z,5.50
2019-01-28T11:45:30.821Z,5.03
2019-01-28T11:47:59.397Z,5.20
2019-01-28T11:50:28.026Z,5.37
2019-01-28T11:52:56.735Z,5.53
2019-01-28T11:55:25.294Z,5.30
2019-01-28T11:57:53.840Z,5.77
2019-01-28T12:00:29.662Z,5.37
2019-01-28T12:02:58.278Z,5.10
2019-01-28T12:05:26.834Z,5.73
2019-01-28T12:07:55.507Z,5.33
2019-01-28T12:10:24.067Z,5.47
2019-01-28T12:12:52.605Z,5.50
2019-01-28T12:15:21.933Z,5.87
2019-01-28T12:17:50.746Z,5.53
2019-01-28T12:20:20.342Z,5.73
2019-01-28T12:22:48.878Z,5.63
2019-01-28T12:25:17.777Z,5.97
2019-01-28T12:27:46.452Z,6.43
2019-01-28T12:30:28.817Z,6.67
2019-01-28T12:32:57.523Z,6.53
2019-01-28T12:35:26.162Z,6.00
2019-01-28T12:37:54.829Z,6.20
2019-01-28T12:40:23.934Z,5.73
2019-01-28T12:42:52.717Z,5.40
2019-01-28T12:45:26.006Z,4.93
2019-01-28T12:47:54.629Z,5.03
2019-01-28T12:50:24.325Z,4.60
2019-01-28T12:52:53.014Z,3.73
2019-01-28T12:55:28.014Z,4.30
2019-01-28T12:57:56.578Z,4.10
2019-01-28T13:00:29.190Z,4.50
2019-01-28T13:02:57.749Z,4.57
2019-01-28T13:05:27.319Z,4.40
2019-01-28T13:07:58.730Z,5.13
2019-01-28T13:10:28.087Z,5.20
2019-01-28T13:12:56.956Z,4.80
2019-01-28T13:15:27.835Z,4.90
2019-01-28T13:17:56.560Z,5.13
2019-01-28T13:20:26.036Z,5.43
2019-01-28T13:22:54.833Z,5.53
2019-01-28T13:25:29.236Z,6.40
2019-01-28T13:27:57.792Z,6.20
2019-01-28T13:30:33.050Z,7.00
2019-01-28T13:33:01.780Z,6.90
2019-01-28T13:35:30.385Z,7.20
2019-01-28T13:37:58.947Z,7.00
2019-01-28T13:40:27.492Z,7.33
2019-01-28T13:42:56.191Z,6.87
2019-01-28T13:45:25.094Z,7.30
2019-01-28T13:47:54.105Z,6.87
2019-01-28T13:50:24.381Z,7.23
2019-01-28T13:52:53.182Z,6.97
2019-01-28T13:55:22.956Z,6.73
2019-01-28T13:57:51.695Z,7.50
2019-01-28T14:00:22.772Z,7.60
2019-01-28T14:02:51.630Z,7.23
2019-01-28T14:05:20.316Z,7.60
2019-01-28T14:07:49.010Z,8.30
2019-01-28T14:10:19.634Z,8.57
2019-01-28T14:12:48.515Z,8.37
2019-01-28T14:15:31.965Z,9.00
2019-01-28T14:18:00.597Z,8.90
2019-01-28T14:20:37.050Z,10.57
2019-01-28T14:23:06.246Z,9.87
2019-01-28T14:25:34.794Z,8.77
2019-01-28T14:28:05.542Z,8.40
2019-01-28T14:30:42.310Z,8.47
2019-01-28T14:33:11.012Z,13.20
2019-01-28T14:35:39.724Z,8.43
2019-01-28T14:38:09.430Z,8.93
2019-01-28T14:40:39.015Z,8.87
2019-01-28T14:43:07.710Z,8.57
2019-01-28T14:45:36.259Z,7.87
2019-01-28T14:48:06.332Z,7.57
2019-01-28T14:50:36.927Z,7.73
2019-01-28T14:53:05.634Z,8.03
2019-01-28T14:55:34.446Z,9.60
2019-01-28T14:58:03.118Z,8.37
2019-01-28T15:00:36.934Z,7.43
2019-01-28T15:03:05.541Z,7.00
2019-01-28T15:05:34.239Z,8.07
2019-01-28T15:08:02.859Z,8.83
2019-01-28T15:10:31.423Z,8.67
2019-01-28T15:12:59.966Z,8.50
2019-01-28T15:15:31.136Z,8.47
2019-01-28T15:18:00.014Z,7.20
2019-01-28T15:20:28.648Z,8.13
2019-01-28T15:22:57.258Z,8.17
2019-01-28T15:25:25.886Z,8.67
2019-01-28T15:27:54.558Z,8.97
2019-01-28T15:30:25.866Z,9.33
2019-01-28T15:32:54.579Z,8.47
2019-01-28T15:35:23.214Z,8.33
2019-01-28T15:37:51.891Z,6.23
2019-01-28T15:40:23.522Z,4.33
2019-01-28T15:42:51.986Z,3.07
2019-01-28T15:45:25.607Z,2.87
2019-01-28T15:47:54.154Z,2.50
2019-01-28T15:50:22.807Z,2.03
2019-01-28T15:52:51.325Z,2.10
2019-01-28T15:55:25.975Z,1.30
2019-01-28T15:57:54.586Z,1.17
2019-01-28T16:00:26.091Z,0.70
2019-01-28T16:02:54.646Z,1.00
2019-01-28T16:05:23.218Z,1.10
2019-01-28T16:07:51.751Z,0.80
2019-01-28T16:10:20.563Z,1.10
2019-01-28T16:12:49.147Z,1.00
2019-01-28T16:15:32.970Z,1.00
2019-01-28T16:18:01.501Z,1.40
2019-01-28T16:20:30.121Z,1.30
2019-01-28T16:22:58.725Z,1.20
2019-01-28T16:25:27.350Z,1.30
2019-01-28T16:27:55.902Z,1.20
2019-01-28T16:30:26.998Z,1.47
2019-01-28T16:32:55.618Z,1.37
2019-01-28T16:35:24.413Z,1.30
2019-01-28T16:37:53.914Z,1.40
2019-01-28T16:40:26.847Z,1.40
2019-01-28T16:42:57.094Z,1.60
2019-01-28T16:45:25.786Z,1.57
2019-01-28T16:47:55.320Z,1.80
2019-01-28T16:50:29.558Z,1.43
2019-01-28T16:52:58.331Z,1.87
2019-01-28T16:55:26.969Z,1.60
2019-01-28T16:57:55.954Z,1.90
2019-01-28T17:00:27.666Z,1.83
2019-01-28T17:02:56.239Z,2.17
2019-01-28T17:05:25.273Z,1.40
2019-01-28T17:07:53.832Z,1.70
2019-01-28T17:10:22.438Z,2.03
2019-01-28T17:12:51.141Z,2.07
2019-01-28T17:15:21.415Z,1.60
2019-01-28T17:17:49.899Z,2.00
2019-01-28T17:20:20.890Z,2.00
2019-01-28T17:22:49.445Z,1.90
2019-01-28T17:25:26.448Z,1.53
2019-01-28T17:27:55.075Z,2.20
2019-01-28T17:30:35.700Z,2.07
2019-01-28T17:33:04.896Z,2.30
2019-01-28T17:35:33.502Z,2.03
2019-01-28T17:38:02.067Z,2.03
2019-01-28T17:40:32.242Z,2.40
2019-01-28T17:43:00.803Z,1.70
2019-01-28T17:45:29.482Z,2.10
2019-01-28T17:47:58.192Z,1.90
2019-01-28T17:50:27.459Z,2.10
2019-01-28T17:52:56.018Z,2.30
2019-01-28T17:55:24.626Z,2.10
2019-01-28T17:57:53.190Z,2.50
2019-01-28T18:00:29.736Z,2.80
2019-01-28T18:02:57.841Z,4.20
2019-01-28T18:05:26.389Z,4.13
2019-01-28T18:07:55.340Z,5.83
2019-01-28T18:10:24.578Z,3.77
2019-01-28T18:12:53.207Z,3.27
2019-01-28T18:15:24.816Z,3.10
2019-01-28T18:17:53.375Z,2.77
2019-01-28T18:20:22.086Z,3.40
2019-01-28T18:22:50.647Z,2.63
2019-01-28T18:25:34.125Z,2.87
2019-01-28T18:28:02.763Z,3.17
2019-01-28T18:30:46.491Z,3.70
2019-01-28T18:33:15.216Z,2.93
2019-01-28T18:35:43.886Z,3.20
2019-01-28T18:38:12.441Z,3.20
2019-01-28T18:40:41.053Z,3.73
2019-01-28T18:43:09.606Z,3.20
2019-01-28T18:45:38.218Z,3.67
2019-01-28T18:48:07.721Z,3.37
2019-01-28T18:50:36.408Z,3.70
2019-01-28T18:53:05.130Z,3.60
2019-01-28T18:55:33.665Z,3.57
2019-01-28T18:58:02.222Z,3.77
2019-01-28T19:00:32.011Z,3.67
2019-01-28T19:03:00.636Z,3.30
2019-01-28T19:05:36.514Z,3.87
2019-01-28T19:08:06.952Z,3.10
2019-01-28T19:10:39.803Z,3.40
2019-01-28T19:13:10.002Z,3.80
2019-01-28T19:15:42.886Z,3.80
2019-01-28T19:18:31.204Z,3.47
2019-01-28T19:21:07.695Z,4.07
2019-01-28T19:23:31.787Z,4.20
2019-01-28T19:26:00.326Z,4.10
2019-01-28T19:28:28.958Z,4.13
2019-01-28T19:30:57.496Z,3.60
2019-01-28T19:33:26.058Z,4.07
2019-01-28T19:35:54.593Z,3.87
2019-01-28T19:38:23.079Z,4.43
2019-01-28T19:40:51.619Z,4.33
2019-01-28T19:43:20.178Z,4.03
2019-01-28T19:45:48.786Z,4.17
2019-01-28T19:48:17.336Z,4.63
2019-01-28T19:50:45.965Z,4.50
2019-01-28T19:53:14.505Z,4.23
2019-01-28T19:55:43.073Z,4.00
2019-01-28T19:58:11.611Z,4.17
2019-01-28T20:00:40.239Z,4.07
2019-01-28T20:03:08.947Z,4.10
2019-01-28T20:05:37.587Z,4.07
2019-01-28T20:08:06.386Z,3.73
2019-01-28T20:10:34.955Z,4.13
2019-01-28T20:13:03.625Z,3.50
2019-01-28T20:15:32.181Z,3.67
2019-01-28T20:18:00.726Z,3.70
2019-01-28T20:20:29.281Z,3.97
2019-01-28T20:22:57.855Z,3.40
2019-01-28T20:25:26.475Z,3.03
2019-01-28T20:27:55.057Z,3.47
2019-01-28T20:30:25.858Z,3.10
2019-01-28T20:32:54.460Z,3.13
2019-01-28T20:35:23.145Z,2.70
2019-01-28T20:37:51.955Z,2.13
2019-01-28T20:40:20.586Z,2.77
2019-01-28T20:42:49.203Z,2.60
2019-01-28T20:45:25.510Z,2.30
2019-01-28T20:47:55.511Z,2.67
2019-01-28T20:50:28.846Z,2.77
2019-01-28T20:52:57.473Z,2.90
2019-01-28T20:55:26.106Z,2.40
2019-01-28T20:57:54.757Z,2.57
2019-01-28T21:00:27.515Z,2.53
2019-01-28T21:02:56.030Z,2.33
2019-01-28T21:05:25.873Z,2.50
2019-01-28T21:07:54.539Z,2.80
2019-01-28T21:10:24.105Z,2.27
2019-01-28T21:12:53.705Z,2.47
2019-01-28T21:15:23.309Z,2.53
2019-01-28T21:17:51.881Z,3.03
2019-01-28T21:20:22.440Z,2.60
2019-01-28T21:22:51.247Z,2.40
2019-01-28T21:25:21.949Z,2.40
2019-01-28T21:27:50.586Z,3.13
2019-01-28T21:30:22.130Z,2.27
2019-01-28T21:32:50.781Z,3.17
2019-01-28T21:35:21.054Z,2.40
2019-01-28T21:38:00.429Z,2.50
2019-01-28T21:40:24.507Z,2.20
2019-01-28T21:42:53.057Z,2.37
2019-01-28T21:45:21.625Z,2.30
2019-01-28T21:47:53.403Z,2.20
2019-01-28T21:50:22.905Z,2.30
2019-01-28T21:52:51.448Z,2.50
2019-01-28T21:55:20.140Z,2.30
2019-01-28T21:57:48.690Z,2.40
2019-01-28T22:00:17.690Z,2.40
2019-01-28T22:02:46.229Z,2.20
2019-01-28T22:05:14.866Z,2.13
2019-01-28T22:07:43.334Z,2.70
2019-01-28T22:10:14.041Z,2.23
2019-01-28T22:12:42.643Z,2.30
2019-01-28T22:15:16.841Z,2.27
2019-01-28T22:17:45.301Z,2.20
2019-01-28T22:20:15.306Z,2.30
2019-01-28T22:22:43.977Z,2.30
2019-01-28T22:25:14.486Z,2.33
2019-01-28T22:27:43.026Z,2.70
2019-01-28T22:30:17.529Z,2.37
2019-01-28T22:32:46.397Z,2.23
2019-01-28T22:35:14.958Z,2.30
2019-01-28T22:37:43.618Z,2.30
2019-01-28T22:40:15.186Z,2.07
2019-01-28T22:42:43.717Z,2.67
2019-01-28T22:45:14.809Z,2.40
2019-01-28T22:47:43.351Z,2.33
2019-01-28T22:50:18.962Z,2.60
2019-01-28T22:52:47.504Z,2.60
2019-01-28T22:55:19.375Z,2.00
2019-01-28T22:57:47.977Z,2.33
2019-01-28T23:00:51.066Z,2.30
2019-01-28T23:03:21.231Z,2.30
2019-01-28T23:05:49.861Z,2.63
2019-01-28T23:08:18.470Z,2.47
2019-01-28T23:10:47.025Z,2.90
2019-01-28T23:13:15.567Z,2.90
2019-01-28T23:15:44.129Z,2.53
2019-01-28T23:18:12.734Z,2.60
2019-01-28T23:20:41.298Z,2.77
2019-01-28T23:23:09.837Z,2.97
2019-01-28T23:25:38.402Z,2.33
2019-01-28T23:28:08.189Z,3.07
2019-01-28T23:30:36.823Z,2.93
2019-01-28T23:33:05.943Z,2.80
2019-01-28T23:35:34.455Z,3.07
2019-01-28T23:38:02.994Z,3.07
2019-01-28T23:40:31.558Z,3.20
2019-01-28T23:43:00.091Z,3.10
2019-01-28T23:45:28.635Z,3.20
2019-01-28T23:47:57.189Z,3.03
2019-01-28T23:50:25.717Z,3.50
2019-01-28T23:52:54.279Z,3.70
2019-01-28T23:55:22.879Z,3.30
2019-01-28T23:57:56.755Z,3.33
